createdAt,value
2022-11-23T00:00:59.671Z,990.56
2022-11-23T00:01:59.622Z,990.58
2022-11-23T00:02:59.578Z,990.56
2022-11-23T00:03:59.566Z,990.60
2022-11-23T00:04:59.549Z,990.59
2022-11-23T00:05:59.553Z,990.65
2022-11-23T00:06:59.660Z,990.62
2022-11-23T00:07:59.532Z,990.66
2022-11-23T00:08:59.516Z,990.63
2022-11-23T00:09:59.505Z,990.62
2022-11-23T00:10:59.498Z,990.66
2022-11-23T00:11:59.505Z,990.62
2022-11-23T00:12:59.466Z,990.64
2022-11-23T00:13:59.450Z,990.71
2022-11-23T00:14:59.459Z,990.75
2022-11-23T00:15:59.435Z,990.75
2022-11-23T00:16:59.430Z,990.76
2022-11-23T00:17:59.434Z,990.75
2022-11-23T00:18:59.400Z,990.70
2022-11-23T00:19:59.394Z,990.73
2022-11-23T00:20:59.386Z,990.76
2022-11-23T00:21:59.385Z,990.69
2022-11-23T00:22:59.376Z,990.76
2022-11-23T00:23:59.384Z,990.74
2022-11-23T00:24:59.355Z,990.76
2022-11-23T00:25:59.330Z,990.78
2022-11-23T00:26:59.327Z,990.75
2022-11-23T00:27:59.312Z,990.75
2022-11-23T00:28:59.306Z,990.74
2022-11-23T00:29:59.296Z,990.72
2022-11-23T00:30:59.283Z,990.71
2022-11-23T00:31:59.266Z,990.69
2022-11-23T00:32:59.269Z,990.75
2022-11-23T00:33:59.276Z,990.71
2022-11-23T00:34:59.224Z,990.81
2022-11-23T00:35:59.214Z,990.77
2022-11-23T00:36:59.201Z,990.83
2022-11-23T00:37:59.203Z,990.79
2022-11-23T00:38:59.239Z,990.82
2022-11-23T00:39:59.197Z,990.85
2022-11-23T00:40:59.169Z,990.88
2022-11-23T00:41:59.160Z,990.89
2022-11-23T00:42:59.142Z,990.90
2022-11-23T00:43:59.122Z,990.90
2022-11-23T00:44:59.125Z,990.86
2022-11-23T00:45:59.117Z,990.90
2022-11-23T00:46:59.134Z,990.90
2022-11-23T00:47:59.091Z,990.84
2022-11-23T00:48:59.071Z,990.87
2022-11-23T00:49:59.080Z,990.88
2022-11-23T00:50:59.076Z,990.90
2022-11-23T00:51:59.038Z,990.83
2022-11-23T00:52:59.150Z,990.82
2022-11-23T00:53:59.036Z,990.85
2022-11-23T00:54:59.044Z,990.86
2022-11-23T00:55:58.991Z,990.85
2022-11-23T00:56:58.990Z,990.89
2022-11-23T00:57:58.986Z,990.87
2022-11-23T00:58:58.995Z,990.93
2022-11-23T00:59:58.961Z,990.90
2022-11-23T01:00:58.963Z,990.94
2022-11-23T01:01:58.975Z,990.92
2022-11-23T01:02:58.936Z,990.93
2022-11-23T01:03:58.909Z,990.95
2022-11-23T01:04:58.924Z,990.95
2022-11-23T01:05:58.902Z,990.97
2022-11-23T01:06:58.890Z,990.96
2022-11-23T01:07:58.906Z,990.98
2022-11-23T01:08:58.860Z,991.03
2022-11-23T01:09:58.847Z,991.01
2022-11-23T01:10:58.872Z,991.03
2022-11-23T01:11:58.847Z,991.08
2022-11-23T01:12:58.830Z,991.05
2022-11-23T01:13:58.796Z,991.02
2022-11-23T01:14:58.804Z,991.04
2022-11-23T01:15:58.788Z,991.05
2022-11-23T01:16:58.789Z,991.05
2022-11-23T01:17:58.780Z,991.05
2022-11-23T01:18:58.754Z,991.05
2022-11-23T01:19:58.766Z,991.07
2022-11-23T01:20:58.728Z,991.07
2022-11-23T01:21:58.722Z,991.07
2022-11-23T01:22:58.730Z,991.10
2022-11-23T01:23:58.701Z,991.05
2022-11-23T01:24:58.687Z,991.08
2022-11-23T01:25:58.671Z,991.09
2022-11-23T01:26:58.697Z,991.08
2022-11-23T01:27:58.648Z,991.11
2022-11-23T01:28:58.648Z,991.07
2022-11-23T01:29:58.652Z,991.09
2022-11-23T01:30:58.648Z,991.13
2022-11-23T01:31:58.607Z,991.13
2022-11-23T01:32:58.610Z,991.15
2022-11-23T01:33:58.599Z,991.11
2022-11-23T01:34:58.571Z,991.13
2022-11-23T01:35:58.561Z,991.11
2022-11-23T01:36:58.564Z,991.13
2022-11-23T01:37:58.542Z,991.11
2022-11-23T01:38:58.542Z,991.14
2022-11-23T01:39:58.519Z,991.06
2022-11-23T01:40:58.520Z,991.07
2022-11-23T01:41:58.494Z,991.06
2022-11-23T01:42:58.535Z,991.06
2022-11-23T01:43:58.488Z,991.10
2022-11-23T01:44:58.481Z,991.14
2022-11-23T01:45:58.482Z,991.07
2022-11-23T01:46:58.446Z,991.07
2022-11-23T01:47:58.434Z,991.08
2022-11-23T01:48:58.423Z,991.07
2022-11-23T01:49:58.429Z,991.09
2022-11-23T01:50:58.435Z,991.11
2022-11-23T01:51:58.393Z,991.14
2022-11-23T01:52:58.388Z,991.12
2022-11-23T01:53:58.382Z,991.23
2022-11-23T01:55:00.600Z,991.20
2022-11-23T01:55:58.366Z,991.21
2022-11-23T01:56:58.375Z,991.23
2022-11-23T01:57:58.337Z,991.25
2022-11-23T01:58:58.333Z,991.24
2022-11-23T01:59:58.294Z,991.29
2022-11-23T02:00:58.363Z,991.26
2022-11-23T02:01:58.302Z,991.21
2022-11-23T02:02:58.285Z,991.23
2022-11-23T02:03:58.258Z,991.15
2022-11-23T02:04:58.366Z,991.20
2022-11-23T02:05:58.242Z,991.26
2022-11-23T02:06:58.238Z,991.27
2022-11-23T02:07:58.206Z,991.30
2022-11-23T02:08:58.242Z,991.33
2022-11-23T02:09:58.191Z,991.34
2022-11-23T02:10:58.189Z,991.32
2022-11-23T02:11:58.170Z,991.32
2022-11-23T02:12:58.157Z,991.36
2022-11-23T02:13:58.163Z,991.33
2022-11-23T02:14:58.162Z,991.31
2022-11-23T02:15:58.119Z,991.35
2022-11-23T02:16:58.159Z,991.36
2022-11-23T02:17:58.110Z,991.36
2022-11-23T02:18:58.094Z,991.33
2022-11-23T02:19:58.097Z,991.32
2022-11-23T02:20:58.073Z,991.35
2022-11-23T02:21:58.070Z,991.40
2022-11-23T02:22:58.075Z,991.33
2022-11-23T02:23:58.037Z,991.36
2022-11-23T02:24:58.025Z,991.35
2022-11-23T02:25:58.037Z,991.37
2022-11-23T02:26:58.012Z,991.39
2022-11-23T02:27:58.001Z,991.37
2022-11-23T02:28:58.004Z,991.37
2022-11-23T02:29:57.968Z,991.36
2022-11-23T02:30:57.993Z,991.35
2022-11-23T02:31:57.959Z,991.40
2022-11-23T02:32:57.953Z,991.41
2022-11-23T02:33:57.937Z,991.44
2022-11-23T02:34:57.930Z,991.42
2022-11-23T02:35:57.918Z,991.39
2022-11-23T02:36:57.898Z,991.47
2022-11-23T02:37:57.902Z,991.42
2022-11-23T02:38:57.869Z,991.46
2022-11-23T02:39:57.885Z,991.47
2022-11-23T02:40:57.852Z,991.42
2022-11-23T02:41:57.850Z,991.51
2022-11-23T02:42:57.849Z,991.47
2022-11-23T02:43:57.822Z,991.44
2022-11-23T02:44:57.804Z,991.47
2022-11-23T02:45:57.812Z,991.42
2022-11-23T02:46:57.880Z,991.43
2022-11-23T02:47:57.783Z,991.44
2022-11-23T02:48:57.761Z,991.42
2022-11-23T02:49:57.761Z,991.44
2022-11-23T02:50:57.765Z,991.42
2022-11-23T02:51:57.729Z,991.43
2022-11-23T02:52:57.737Z,991.48
2022-11-23T02:53:57.723Z,991.48
2022-11-23T02:54:57.712Z,991.45
2022-11-23T02:55:57.697Z,991.42
2022-11-23T02:56:57.681Z,991.44
2022-11-23T02:57:57.683Z,991.37
2022-11-23T02:58:57.688Z,991.40
2022-11-23T02:59:57.683Z,991.42
2022-11-23T03:00:57.749Z,991.36
2022-11-23T03:01:57.617Z,991.39
2022-11-23T03:02:57.776Z,991.40
2022-11-23T03:03:57.607Z,991.34
2022-11-23T03:04:57.586Z,991.36
2022-11-23T03:05:57.613Z,991.38
2022-11-23T03:06:57.572Z,991.40
2022-11-23T03:07:57.558Z,991.39
2022-11-23T03:08:57.568Z,991.37
2022-11-23T03:09:57.552Z,991.38
2022-11-23T03:10:57.526Z,991.36
2022-11-23T03:11:57.532Z,991.37
2022-11-23T03:12:57.503Z,991.35
2022-11-23T03:13:57.495Z,991.32
2022-11-23T03:14:57.498Z,991.30
2022-11-23T03:15:57.468Z,991.30
2022-11-23T03:16:57.453Z,991.31
2022-11-23T03:17:57.470Z,991.31
2022-11-23T03:18:57.462Z,991.33
2022-11-23T03:19:57.471Z,991.33
2022-11-23T03:20:57.432Z,991.37
2022-11-23T03:21:57.399Z,991.34
2022-11-23T03:22:57.417Z,991.31
2022-11-23T03:23:57.406Z,991.33
2022-11-23T03:24:57.372Z,991.31
2022-11-23T03:25:57.378Z,991.29
2022-11-23T03:26:57.360Z,991.31
2022-11-23T03:27:57.359Z,991.28
2022-11-23T03:28:57.326Z,991.30
2022-11-23T03:29:57.341Z,991.30
2022-11-23T03:30:57.335Z,991.29
2022-11-23T03:31:57.294Z,991.29
2022-11-23T03:32:57.286Z,991.21
2022-11-23T03:33:57.275Z,991.27
2022-11-23T03:34:57.290Z,991.32
2022-11-23T03:35:57.247Z,991.28
2022-11-23T03:36:57.251Z,991.31
2022-11-23T03:37:57.231Z,991.30
2022-11-23T03:38:57.237Z,991.26
2022-11-23T03:39:57.283Z,991.38
2022-11-23T03:40:57.199Z,991.35
2022-11-23T03:41:57.229Z,991.32
2022-11-23T03:42:57.187Z,991.34
2022-11-23T03:43:57.167Z,991.39
2022-11-23T03:44:57.178Z,991.41
2022-11-23T03:45:57.138Z,991.33
2022-11-23T03:46:57.157Z,991.42
2022-11-23T03:47:57.116Z,991.39
2022-11-23T03:48:57.109Z,991.38
2022-11-23T03:49:57.099Z,991.42
2022-11-23T03:50:57.117Z,991.43
2022-11-23T03:51:57.106Z,991.46
2022-11-23T03:52:57.089Z,991.44
2022-11-23T03:53:57.050Z,991.45
2022-11-23T03:54:57.043Z,991.40
2022-11-23T03:55:57.039Z,991.43
2022-11-23T03:56:57.048Z,991.47
2022-11-23T03:57:57.013Z,991.46
2022-11-23T03:58:57.027Z,991.42
2022-11-23T03:59:57.005Z,991.47
2022-11-23T04:00:57.025Z,991.44
2022-11-23T04:01:56.981Z,991.44
2022-11-23T04:02:56.983Z,991.42
2022-11-23T04:03:56.946Z,991.49
2022-11-23T04:04:56.949Z,991.49
2022-11-23T04:05:56.949Z,991.51
2022-11-23T04:06:56.936Z,991.55
2022-11-23T04:07:56.923Z,991.56
2022-11-23T04:09:01.764Z,991.58
2022-11-23T04:09:57.895Z,991.56
2022-11-23T04:10:56.870Z,991.63
2022-11-23T04:11:56.854Z,991.59
2022-11-23T04:12:56.872Z,991.54
2022-11-23T04:13:56.859Z,991.61
2022-11-23T04:14:56.832Z,991.56
2022-11-23T04:15:56.829Z,991.58
2022-11-23T04:16:56.806Z,991.55
2022-11-23T04:17:56.810Z,991.53
2022-11-23T04:18:56.781Z,991.52
2022-11-23T04:19:56.797Z,991.56
2022-11-23T04:20:56.787Z,991.53
2022-11-23T04:21:56.755Z,991.54
2022-11-23T04:22:56.761Z,991.54
2022-11-23T04:23:56.726Z,991.56
2022-11-23T04:24:56.740Z,991.56
2022-11-23T04:25:56.709Z,991.56
2022-11-23T04:26:56.696Z,991.54
2022-11-23T04:27:56.691Z,991.54
2022-11-23T04:28:56.685Z,991.59
2022-11-23T04:29:56.673Z,991.57
2022-11-23T04:30:56.679Z,991.57
2022-11-23T04:31:56.646Z,991.56
2022-11-23T04:32:56.641Z,991.54
2022-11-23T04:33:56.614Z,991.56
2022-11-23T04:34:56.614Z,991.49
2022-11-23T04:35:56.607Z,991.52
2022-11-23T04:36:56.589Z,991.53
2022-11-23T04:37:56.582Z,991.54
2022-11-23T04:38:56.607Z,991.54
2022-11-23T04:39:56.559Z,991.57
2022-11-23T04:40:56.548Z,991.60
2022-11-23T04:41:56.552Z,991.57
2022-11-23T04:43:00.527Z,991.59
2022-11-23T04:43:57.519Z,991.55
2022-11-23T04:44:56.522Z,991.53
2022-11-23T04:45:56.482Z,991.58
2022-11-23T04:46:56.476Z,991.58
2022-11-23T04:47:56.460Z,991.58
2022-11-23T04:48:56.467Z,991.62
2022-11-23T04:49:56.479Z,991.63
2022-11-23T04:50:56.430Z,991.63
2022-11-23T04:51:56.420Z,991.68
2022-11-23T04:52:56.410Z,991.69
2022-11-23T04:53:56.402Z,991.72
2022-11-23T04:54:56.432Z,991.74
2022-11-23T04:55:56.372Z,991.73
2022-11-23T04:56:56.372Z,991.76
2022-11-23T04:57:56.363Z,991.72
2022-11-23T04:58:56.341Z,991.73
2022-11-23T04:59:56.361Z,991.74
2022-11-23T05:00:56.364Z,991.72
2022-11-23T05:01:56.341Z,991.69
2022-11-23T05:02:56.321Z,991.69
2022-11-23T05:03:56.301Z,991.66
2022-11-23T05:04:56.292Z,991.66
2022-11-23T05:05:56.271Z,991.65
2022-11-23T05:06:56.269Z,991.65
2022-11-23T05:07:56.249Z,991.63
2022-11-23T05:08:56.246Z,991.61
2022-11-23T05:09:56.238Z,991.56
2022-11-23T05:10:56.246Z,991.56
2022-11-23T05:11:56.209Z,991.59
2022-11-23T05:12:56.212Z,991.63
2022-11-23T05:13:56.192Z,991.64
2022-11-23T05:14:56.200Z,991.67
2022-11-23T05:15:56.165Z,991.63
2022-11-23T05:16:56.150Z,991.60
2022-11-23T05:17:59.057Z,991.65
2022-11-23T05:18:56.139Z,991.72
2022-11-23T05:19:56.157Z,991.69
2022-11-23T05:20:56.103Z,991.71
2022-11-23T05:21:56.100Z,991.73
2022-11-23T05:22:56.091Z,991.74
2022-11-23T05:23:56.099Z,991.74
2022-11-23T05:24:56.078Z,991.73
2022-11-23T05:25:56.066Z,991.74
2022-11-23T05:26:56.539Z,991.72
2022-11-23T05:27:56.036Z,991.75
2022-11-23T05:28:56.053Z,991.71
2022-11-23T05:29:56.006Z,991.74
2022-11-23T05:30:56.007Z,991.79
2022-11-23T05:31:56.004Z,991.77
2022-11-23T05:32:55.979Z,991.78
2022-11-23T05:33:55.991Z,991.84
2022-11-23T05:34:55.961Z,991.78
2022-11-23T05:35:55.962Z,991.79
2022-11-23T05:36:55.939Z,991.83
2022-11-23T05:37:55.920Z,991.82
2022-11-23T05:38:55.951Z,991.82
2022-11-23T05:39:55.898Z,991.81
2022-11-23T05:40:55.903Z,991.81
2022-11-23T05:41:55.928Z,991.85
2022-11-23T05:42:55.897Z,991.83
2022-11-23T05:43:55.857Z,991.82
2022-11-23T05:44:55.853Z,991.88
2022-11-23T05:45:55.839Z,991.91
2022-11-23T05:46:55.823Z,991.87
2022-11-23T05:47:55.828Z,991.86
2022-11-23T05:48:55.808Z,991.86
2022-11-23T05:49:55.793Z,991.89
2022-11-23T05:50:58.654Z,991.89
2022-11-23T05:51:56.772Z,991.87
2022-11-23T05:52:55.765Z,991.94
2022-11-23T05:53:55.756Z,991.92
2022-11-23T05:54:55.752Z,991.91
2022-11-23T05:55:55.741Z,991.93
2022-11-23T05:56:55.715Z,991.91
2022-11-23T05:57:55.706Z,991.98
2022-11-23T05:58:55.731Z,991.91
2022-11-23T05:59:55.713Z,991.98
2022-11-23T06:00:55.676Z,991.93
2022-11-23T06:01:55.681Z,991.95
2022-11-23T06:02:55.713Z,991.94
2022-11-23T06:03:55.712Z,991.96
2022-11-23T06:04:55.652Z,991.95
2022-11-23T06:05:55.645Z,991.94
2022-11-23T06:06:55.612Z,991.93
2022-11-23T06:07:55.878Z,991.93
2022-11-23T06:08:55.607Z,991.93
2022-11-23T06:09:55.582Z,991.90
2022-11-23T06:10:55.583Z,991.89
2022-11-23T06:11:55.562Z,991.96
2022-11-23T06:12:55.553Z,991.93
2022-11-23T06:13:55.549Z,991.87
2022-11-23T06:14:55.556Z,991.95
2022-11-23T06:15:55.532Z,991.89
2022-11-23T06:16:55.502Z,991.88
2022-11-23T06:17:55.509Z,991.83
2022-11-23T06:18:55.503Z,991.84
2022-11-23T06:19:55.468Z,991.87
2022-11-23T06:20:55.470Z,991.85
2022-11-23T06:21:55.446Z,991.87
2022-11-23T06:22:55.440Z,991.86
2022-11-23T06:23:55.435Z,991.88
2022-11-23T06:24:55.435Z,991.92
2022-11-23T06:25:55.415Z,991.92
2022-11-23T06:26:55.455Z,991.94
2022-11-23T06:27:55.388Z,991.95
2022-11-23T06:28:55.414Z,991.96
2022-11-23T06:29:55.362Z,991.95
2022-11-23T06:30:55.367Z,991.93
2022-11-23T06:31:55.353Z,991.95
2022-11-23T06:32:55.326Z,991.93
2022-11-23T06:33:55.340Z,991.95
2022-11-23T06:35:00.487Z,991.94
2022-11-23T06:35:56.301Z,991.97
2022-11-23T06:36:55.293Z,991.95
2022-11-23T06:37:55.296Z,991.98
2022-11-23T06:38:55.259Z,991.98
2022-11-23T06:39:55.243Z,991.98
2022-11-23T06:40:55.258Z,992.00
2022-11-23T06:42:02.850Z,991.97
2022-11-23T06:42:56.228Z,991.96
2022-11-23T06:43:55.219Z,991.92
2022-11-23T06:44:55.198Z,991.98
2022-11-23T06:45:55.176Z,991.98
2022-11-23T06:46:55.197Z,991.95
2022-11-23T06:47:55.551Z,991.96
2022-11-23T06:48:55.169Z,991.94
2022-11-23T06:49:55.136Z,991.99
2022-11-23T06:50:55.146Z,992.00
2022-11-23T06:51:55.142Z,991.99
2022-11-23T06:52:55.178Z,992.03
2022-11-23T06:53:55.096Z,992.04
2022-11-23T06:54:55.112Z,992.03
2022-11-23T06:55:55.111Z,992.03
2022-11-23T06:56:55.107Z,992.02
2022-11-23T06:57:55.055Z,992.05
2022-11-23T06:58:55.081Z,992.03
2022-11-23T06:59:55.047Z,992.09
2022-11-23T07:00:55.128Z,992.08
2022-11-23T07:01:55.022Z,992.05
2022-11-23T07:02:55.053Z,992.06
2022-11-23T07:03:55.048Z,992.08
2022-11-23T07:04:55.026Z,992.10
2022-11-23T07:05:55.003Z,992.13
2022-11-23T07:06:54.967Z,992.10
2022-11-23T07:07:55.005Z,992.10
2022-11-23T07:08:54.965Z,992.08
2022-11-23T07:09:57.507Z,992.11
2022-11-23T07:10:54.912Z,992.10
2022-11-23T07:11:54.909Z,992.16
2022-11-23T07:12:54.898Z,992.09
2022-11-23T07:13:54.895Z,992.14
2022-11-23T07:14:54.909Z,992.11
2022-11-23T07:15:54.871Z,992.13
2022-11-23T07:16:54.863Z,992.12
2022-11-23T07:17:54.864Z,992.14
2022-11-23T07:18:54.857Z,992.14
2022-11-23T07:19:54.827Z,992.12
2022-11-23T07:20:54.821Z,992.11
2022-11-23T07:21:54.787Z,992.14
2022-11-23T07:22:54.779Z,992.11
2022-11-23T07:23:54.781Z,992.18
2022-11-23T07:24:54.781Z,992.13
2022-11-23T07:25:54.854Z,992.13
2022-11-23T07:26:54.785Z,992.11
2022-11-23T07:27:54.744Z,992.15
2022-11-23T07:28:54.720Z,992.16
2022-11-23T07:29:54.760Z,992.18
2022-11-23T07:30:54.697Z,992.21
2022-11-23T07:31:54.693Z,992.12
2022-11-23T07:32:54.689Z,992.18
2022-11-23T07:33:54.699Z,992.17
2022-11-23T07:34:54.677Z,992.16
2022-11-23T07:35:54.657Z,992.15
2022-11-23T07:36:57.959Z,992.14
2022-11-23T07:37:55.623Z,992.11
2022-11-23T07:38:54.629Z,992.20
2022-11-23T07:39:57.721Z,992.25
2022-11-23T07:40:54.641Z,992.18
2022-11-23T07:42:17.391Z,992.26
2022-11-23T07:42:55.566Z,992.19
2022-11-23T07:43:54.568Z,992.19
2022-11-23T07:44:54.546Z,992.20
2022-11-23T07:45:54.536Z,992.20
2022-11-23T07:46:54.538Z,992.27
2022-11-23T07:47:54.513Z,992.25
2022-11-23T07:48:54.555Z,992.31
2022-11-23T07:49:54.494Z,992.34
2022-11-23T07:50:54.516Z,992.32
2022-11-23T07:51:54.481Z,992.33
2022-11-23T07:52:54.501Z,992.38
2022-11-23T07:53:54.443Z,992.29
2022-11-23T07:54:54.475Z,992.33
2022-11-23T07:55:54.481Z,992.33
2022-11-23T07:56:54.482Z,992.36
2022-11-23T07:57:54.449Z,992.38
2022-11-23T07:58:54.405Z,992.34
2022-11-23T07:59:54.374Z,992.37
2022-11-23T08:00:54.392Z,992.34
2022-11-23T08:01:58.316Z,992.40
2022-11-23T08:03:25.775Z,992.33
2022-11-23T08:03:55.348Z,992.34
2022-11-23T08:04:54.419Z,992.42
2022-11-23T08:05:54.361Z,992.40
2022-11-23T08:06:55.068Z,992.37
2022-11-23T08:07:54.296Z,992.39
2022-11-23T08:08:54.339Z,992.41
2022-11-23T08:09:54.295Z,992.40
2022-11-23T08:10:54.803Z,992.36
2022-11-23T08:11:54.260Z,992.42
2022-11-23T08:12:54.231Z,992.42
2022-11-23T08:13:54.241Z,992.38
2022-11-23T08:14:54.235Z,992.41
2022-11-23T08:15:55.994Z,992.36
2022-11-23T08:16:54.197Z,992.41
2022-11-23T08:17:54.914Z,992.42
2022-11-23T08:18:54.184Z,992.40
2022-11-23T08:19:54.175Z,992.42
2022-11-23T08:20:54.166Z,992.44
2022-11-23T08:21:54.163Z,992.48
2022-11-23T08:22:54.148Z,992.48
2022-11-23T08:23:54.150Z,992.46
2022-11-23T08:24:54.119Z,992.44
2022-11-23T08:25:54.104Z,992.45
2022-11-23T08:26:54.080Z,992.39
2022-11-23T08:27:54.079Z,992.41
2022-11-23T08:28:54.064Z,992.36
2022-11-23T08:29:54.058Z,992.41
2022-11-23T08:30:54.056Z,992.40
2022-11-23T08:31:54.045Z,992.32
2022-11-23T08:32:54.059Z,992.39
2022-11-23T08:33:57.630Z,992.46
2022-11-23T08:34:55.026Z,992.37
2022-11-23T08:35:53.989Z,992.40
2022-11-23T08:36:53.999Z,992.39
2022-11-23T08:37:53.981Z,992.41
2022-11-23T08:38:53.990Z,992.39
2022-11-23T08:39:53.973Z,992.41
2022-11-23T08:40:53.959Z,992.41
2022-11-23T08:41:53.972Z,992.42
2022-11-23T08:42:53.968Z,992.40
2022-11-23T08:43:53.924Z,992.37
2022-11-23T08:44:53.906Z,992.43
2022-11-23T08:45:57.623Z,992.40
2022-11-23T08:46:54.904Z,992.36
2022-11-23T08:47:53.895Z,992.35
2022-11-23T08:48:53.868Z,992.36
2022-11-23T08:49:53.946Z,992.34
2022-11-23T08:50:53.854Z,992.42
2022-11-23T08:51:54.613Z,992.39
2022-11-23T08:52:53.822Z,992.38
2022-11-23T08:53:53.812Z,992.39
2022-11-23T08:54:53.810Z,992.40
2022-11-23T08:55:53.786Z,992.45
2022-11-23T08:56:53.799Z,992.42
2022-11-23T08:57:53.756Z,992.41
2022-11-23T08:58:53.752Z,992.42
2022-11-23T08:59:53.732Z,992.40
2022-11-23T09:00:53.733Z,992.29
2022-11-23T09:01:53.777Z,992.38
2022-11-23T09:02:53.719Z,992.43
2022-11-23T09:03:53.697Z,992.43
2022-11-23T09:04:53.706Z,992.46
2022-11-23T09:05:53.664Z,992.46
2022-11-23T09:06:53.673Z,992.46
2022-11-23T09:07:53.672Z,992.47
2022-11-23T09:08:53.671Z,992.44
2022-11-23T09:09:53.621Z,992.44
2022-11-23T09:10:53.629Z,992.40
2022-11-23T09:11:53.616Z,992.44
2022-11-23T09:12:53.594Z,992.43
2022-11-23T09:13:53.580Z,992.39
2022-11-23T09:14:53.554Z,992.38
2022-11-23T09:15:53.579Z,992.36
2022-11-23T09:16:53.555Z,992.35
2022-11-23T09:17:53.547Z,992.43
2022-11-23T09:18:53.585Z,992.39
2022-11-23T09:19:53.516Z,992.29
2022-11-23T09:20:53.562Z,992.38
2022-11-23T09:21:53.486Z,992.27
2022-11-23T09:22:53.502Z,992.32
2022-11-23T09:23:53.724Z,992.35
2022-11-23T09:24:53.472Z,992.31
2022-11-23T09:25:54.560Z,992.35
2022-11-23T09:26:53.486Z,992.42
2022-11-23T09:27:53.418Z,992.41
2022-11-23T09:28:53.419Z,992.48
2022-11-23T09:29:53.405Z,992.47
2022-11-23T09:30:53.415Z,992.48
2022-11-23T09:31:53.426Z,992.51
2022-11-23T09:32:53.566Z,992.51
2022-11-23T09:33:53.384Z,992.51
2022-11-23T09:34:53.337Z,992.56
2022-11-23T09:35:53.359Z,992.51
2022-11-23T09:36:53.345Z,992.49
2022-11-23T09:37:53.327Z,992.51
2022-11-23T09:38:57.521Z,992.54
2022-11-23T09:39:53.297Z,992.53
2022-11-23T09:40:57.590Z,992.51
2022-11-23T09:41:53.268Z,992.50
2022-11-23T09:42:53.292Z,992.52
2022-11-23T09:43:53.254Z,992.52
2022-11-23T09:44:53.254Z,992.48
2022-11-23T09:45:53.280Z,992.45
2022-11-23T09:46:53.263Z,992.61
2022-11-23T09:47:53.199Z,992.42
2022-11-23T09:48:53.218Z,992.54
2022-11-23T09:49:53.202Z,992.46
2022-11-23T09:50:54.030Z,992.41
2022-11-23T09:51:53.163Z,992.55
2022-11-23T09:52:53.166Z,992.50
2022-11-23T09:53:53.150Z,992.56
2022-11-23T09:54:53.155Z,992.55
2022-11-23T09:55:53.117Z,992.57
2022-11-23T09:56:57.143Z,992.51
2022-11-23T09:57:54.079Z,992.48
2022-11-23T09:58:54.051Z,992.50
2022-11-23T09:59:53.107Z,992.46
2022-11-23T10:00:53.137Z,992.50
2022-11-23T10:01:53.099Z,992.51
2022-11-23T10:02:53.063Z,992.54
2022-11-23T10:03:53.086Z,992.54
2022-11-23T10:04:54.034Z,992.56
2022-11-23T10:05:53.010Z,992.55
2022-11-23T10:06:52.993Z,992.48
2022-11-23T10:07:53.046Z,992.51
2022-11-23T10:08:52.986Z,992.49
2022-11-23T10:09:52.981Z,992.43
2022-11-23T10:10:52.951Z,992.28
2022-11-23T10:11:52.946Z,992.45
2022-11-23T10:12:52.960Z,992.44
2022-11-23T10:13:52.927Z,992.43
2022-11-23T10:14:53.164Z,992.30
2022-11-23T10:15:52.889Z,992.43
2022-11-23T10:16:52.918Z,992.39
2022-11-23T10:17:52.909Z,992.32
2022-11-23T10:18:52.881Z,992.40
2022-11-23T10:19:52.843Z,992.47
2022-11-23T10:20:52.848Z,992.39
2022-11-23T10:21:52.874Z,992.39
2022-11-23T10:22:52.829Z,992.32
2022-11-23T10:23:52.816Z,992.33
2022-11-23T10:24:52.799Z,992.33
2022-11-23T10:25:52.800Z,992.37
2022-11-23T10:26:52.797Z,992.33
2022-11-23T10:27:52.815Z,992.32
2022-11-23T10:28:52.764Z,992.30
2022-11-23T10:29:53.535Z,992.30
2022-11-23T10:30:52.768Z,992.20
2022-11-23T10:31:57.011Z,992.25
2022-11-23T10:32:52.720Z,992.32
2022-11-23T10:33:52.780Z,992.29
2022-11-23T10:34:52.677Z,992.27
2022-11-23T10:35:52.679Z,992.31
2022-11-23T10:36:53.725Z,992.32
2022-11-23T10:37:53.903Z,992.24
2022-11-23T10:38:52.649Z,992.24
2022-11-23T10:39:52.743Z,992.21
2022-11-23T10:40:52.675Z,992.15
2022-11-23T10:41:52.627Z,992.12
2022-11-23T10:42:52.623Z,992.12
2022-11-23T10:43:52.765Z,992.09
2022-11-23T10:44:52.565Z,992.05
2022-11-23T10:45:58.587Z,992.09
2022-11-23T10:46:53.619Z,992.07
2022-11-23T10:47:52.557Z,992.05
2022-11-23T10:48:52.532Z,992.08
2022-11-23T10:49:52.526Z,992.04
2022-11-23T10:50:52.569Z,992.02
2022-11-23T10:51:52.548Z,991.91
2022-11-23T10:52:52.501Z,991.90
2022-11-23T10:53:52.472Z,991.86
2022-11-23T10:54:52.462Z,991.86
2022-11-23T10:55:52.475Z,991.87
2022-11-23T10:56:52.461Z,991.83
2022-11-23T10:57:52.499Z,991.79
2022-11-23T10:58:52.433Z,991.76
2022-11-23T10:59:53.085Z,991.78
2022-11-23T11:00:52.413Z,991.78
2022-11-23T11:01:52.417Z,991.79
2022-11-23T11:02:52.468Z,991.72
2022-11-23T11:03:52.372Z,991.73
2022-11-23T11:04:58.466Z,991.67
2022-11-23T11:06:10.233Z,991.71
2022-11-23T11:06:53.348Z,991.69
2022-11-23T11:07:52.461Z,991.64
2022-11-23T11:08:52.306Z,991.76
2022-11-23T11:09:52.363Z,991.71
2022-11-23T11:10:52.298Z,991.65
2022-11-23T11:11:52.319Z,991.67
2022-11-23T11:12:52.277Z,991.63
2022-11-23T11:13:52.263Z,991.64
2022-11-23T11:14:52.272Z,991.61
2022-11-23T11:15:52.236Z,991.71
2022-11-23T11:16:52.470Z,991.71
2022-11-23T11:17:52.307Z,991.62
2022-11-23T11:18:52.219Z,991.63
2022-11-23T11:19:52.208Z,991.49
2022-11-23T11:20:52.192Z,991.61
2022-11-23T11:21:52.180Z,991.51
2022-11-23T11:22:52.164Z,991.56
2022-11-23T11:23:52.164Z,991.58
2022-11-23T11:24:52.148Z,991.58
2022-11-23T11:25:52.121Z,991.53
2022-11-23T11:26:52.126Z,991.55
2022-11-23T11:27:52.089Z,991.61
2022-11-23T11:28:52.114Z,991.54
2022-11-23T11:29:52.100Z,991.59
2022-11-23T11:30:52.075Z,991.43
2022-11-23T11:31:52.048Z,991.52
2022-11-23T11:32:52.087Z,991.50
2022-11-23T11:33:52.053Z,991.54
2022-11-23T11:34:52.059Z,991.55
2022-11-23T11:35:52.035Z,991.48
2022-11-23T11:36:52.007Z,991.46
2022-11-23T11:37:52.021Z,991.49
2022-11-23T11:39:15.124Z,991.45
2022-11-23T11:39:52.991Z,991.51
2022-11-23T11:40:51.959Z,991.38
2022-11-23T11:41:51.966Z,991.38
2022-11-23T11:42:51.970Z,991.38
2022-11-23T11:43:51.944Z,991.41
2022-11-23T11:44:52.068Z,991.42
2022-11-23T11:46:27.895Z,991.35
2022-11-23T11:46:52.905Z,991.38
2022-11-23T11:47:51.907Z,991.37
2022-11-23T11:48:51.885Z,991.34
2022-11-23T11:49:51.856Z,991.30
2022-11-23T11:50:51.874Z,991.37
2022-11-23T11:51:51.822Z,991.33
2022-11-23T11:52:51.863Z,991.34
2022-11-23T11:53:51.905Z,991.27
2022-11-23T11:54:51.925Z,991.33
2022-11-23T11:55:51.850Z,991.20
2022-11-23T11:56:51.770Z,991.26
2022-11-23T11:57:51.852Z,991.28
2022-11-23T11:58:51.819Z,991.36
2022-11-23T11:59:51.807Z,991.30
2022-11-23T12:00:51.731Z,991.25
2022-11-23T12:01:51.750Z,991.31
2022-11-23T12:02:51.768Z,991.27
2022-11-23T12:03:52.060Z,991.24
2022-11-23T12:04:51.677Z,991.23
2022-11-23T12:05:51.781Z,991.27
2022-11-23T12:06:51.706Z,991.32
2022-11-23T12:07:51.789Z,991.28
2022-11-23T12:08:51.646Z,991.28
2022-11-23T12:09:51.645Z,991.28
2022-11-23T12:10:51.622Z,991.26
2022-11-23T12:11:51.634Z,991.25
2022-11-23T12:12:51.615Z,991.24
2022-11-23T12:13:51.608Z,991.26
2022-11-23T12:14:56.558Z,991.24
2022-11-23T12:15:51.625Z,991.30
2022-11-23T12:17:52.568Z,991.33
2022-11-23T12:18:51.536Z,991.24
2022-11-23T12:19:51.535Z,991.33
2022-11-23T12:20:51.523Z,991.31
2022-11-23T12:21:55.736Z,991.28
2022-11-23T12:22:51.547Z,991.30
2022-11-23T12:23:51.476Z,991.29
2022-11-23T12:24:51.539Z,991.32
2022-11-23T12:25:51.473Z,991.29
2022-11-23T12:26:51.465Z,991.21
2022-11-23T12:27:51.427Z,991.13
2022-11-23T12:28:51.432Z,991.13
2022-11-23T12:29:51.423Z,991.09